createdAt,value
2022-12-20T00:06:09.696Z,15.1
2022-12-20T00:16:15.887Z,14.9
2022-12-20T00:26:23.811Z,15.1
2022-12-20T00:36:29.990Z,14.9
2022-12-20T00:46:37.936Z,14.9
2022-12-20T00:56:44.145Z,14.9
2022-12-20T01:06:51.982Z,14.9
2022-12-20T01:16:58.313Z,14.9
2022-12-20T01:27:04.306Z,14.9
2022-12-20T01:37:12.421Z,14.9
2022-12-20T01:47:20.200Z,14.9
2022-12-20T01:57:26.374Z,14.9
2022-12-20T02:07:32.489Z,14.9
2022-12-20T02:17:40.464Z,14.9
2022-12-20T02:27:46.606Z,14.9
2022-12-20T02:37:52.780Z,14.9
2022-12-20T02:47:58.915Z,14.9
2022-12-20T02:58:05.130Z,14.9
2022-12-20T03:08:11.222Z,14.9
2022-12-20T03:18:19.197Z,14.7
2022-12-20T03:28:27.108Z,14.7
2022-12-20T03:38:35.047Z,14.7
2022-12-20T03:48:42.988Z,14.7
2022-12-20T03:58:50.944Z,14.7
2022-12-20T04:08:58.867Z,14.7
2022-12-20T04:19:06.827Z,14.9
2022-12-20T04:29:12.936Z,14.9
2022-12-20T04:39:19.132Z,14.9
2022-12-20T04:49:25.251Z,14.9
2022-12-20T04:59:33.249Z,14.7
2022-12-20T05:09:41.144Z,14.8
2022-12-20T05:19:49.137Z,14.8
2022-12-20T05:29:55.248Z,14.8
2022-12-20T05:40:01.471Z,14.6
2022-12-20T05:50:09.261Z,14.1
2022-12-20T06:00:13.713Z,13.2
2022-12-20T06:10:19.862Z,13.2
2022-12-20T06:20:27.848Z,13
2022-12-20T06:30:35.741Z,13.2
2022-12-20T06:40:43.725Z,13.4
2022-12-20T06:50:55.782Z,13.5
2022-12-20T07:00:59.735Z,13.5
2022-12-20T07:11:07.489Z,13.7
2022-12-20T07:21:15.468Z,13.7
2022-12-20T07:31:21.674Z,13.7
2022-12-20T07:41:29.579Z,13.7
2022-12-20T07:51:35.688Z,13.7
2022-12-20T08:01:43.909Z,13.5
2022-12-20T08:11:49.813Z,13.5
2022-12-20T08:21:57.747Z,13.7
2022-12-20T08:32:05.663Z,13.7
2022-12-20T08:42:13.655Z,13.7
2022-12-20T08:52:21.532Z,13.9
2022-12-20T09:02:27.879Z,14.1
2022-12-20T09:12:35.624Z,14.1
2022-12-20T09:22:41.852Z,14.1
2022-12-20T09:32:49.749Z,14.1
2022-12-20T09:42:57.695Z,14.1
2022-12-20T09:53:03.868Z,14.3
2022-12-20T10:03:10.955Z,14.3
2022-12-20T10:13:16.150Z,14.1
2022-12-20T10:23:30.927Z,14.1
2022-12-20T10:33:32.030Z,14.1
2022-12-20T10:43:38.265Z,14.1
2022-12-20T10:53:44.353Z,14.1
2022-12-20T11:03:52.352Z,13.9
2022-12-20T11:14:00.223Z,14.1
2022-12-20T11:24:08.363Z,14.1
2022-12-20T11:34:14.326Z,13.9
2022-12-20T11:44:25.930Z,13.9
2022-12-20T11:54:28.506Z,13.9
2022-12-20T12:04:36.372Z,13.9
2022-12-20T12:14:42.534Z,13.9
2022-12-20T12:24:50.479Z,13.9
2022-12-20T12:34:56.644Z,13.9
2022-12-20T12:45:04.608Z,13.9
2022-12-20T12:55:10.734Z,13.9
2022-12-20T13:05:25.481Z,13.9
2022-12-20T13:15:24.817Z,13.9
2022-12-20T13:25:32.771Z,13.9
2022-12-20T13:35:40.709Z,13.9
2022-12-20T13:45:48.770Z,13.8
2022-12-20T13:55:56.558Z,13.8
2022-12-20T14:06:04.546Z,13.8
2022-12-20T14:16:12.476Z,13.8
2022-12-20T14:26:20.400Z,13.8
2022-12-20T14:36:28.319Z,13.8
2022-12-20T14:46:34.607Z,13.8
2022-12-20T14:56:42.561Z,13.8
2022-12-20T15:06:50.364Z,13.8
2022-12-20T15:16:58.290Z,13.8
2022-12-20T15:27:06.272Z,13.8
2022-12-20T15:37:17.883Z,13.8
2022-12-20T15:47:20.363Z,13.8
2022-12-20T15:57:28.298Z,13.8
2022-12-20T16:07:34.461Z,13.8
2022-12-20T16:17:42.380Z,13.8
2022-12-20T16:27:48.559Z,13.9
2022-12-20T16:37:56.484Z,13.9
2022-12-20T16:48:02.659Z,13.9
2022-12-20T16:58:10.586Z,13.9
2022-12-20T17:08:50.723Z,13.9
2022-12-20T17:28:32.629Z,13.9
2022-12-20T17:38:40.532Z,13.9
2022-12-20T17:48:48.487Z,13.9
2022-12-20T17:58:56.458Z,13.9
2022-12-20T18:09:02.630Z,13.9
2022-12-20T18:19:08.728Z,13.9
2022-12-20T18:29:16.780Z,13.9
2022-12-20T18:39:24.604Z,13.9
2022-12-20T18:49:30.776Z,13.9
2022-12-20T18:59:38.694Z,13.9
2022-12-20T19:09:44.873Z,13.9
2022-12-20T19:19:52.795Z,13.9
2022-12-20T19:30:00.770Z,13.9
2022-12-20T19:40:08.664Z,13.9
2022-12-20T19:50:16.734Z,13.9
2022-12-20T20:00:24.611Z,13.9
2022-12-20T20:10:32.522Z,13.9
2022-12-20T20:20:38.678Z,13.9
2022-12-20T20:30:46.683Z,13.9
2022-12-20T20:40:54.537Z,13.9
2022-12-20T20:51:00.753Z,13.9
2022-12-20T21:01:06.933Z,13.9
2022-12-20T21:11:15.027Z,13.9
2022-12-20T21:21:22.713Z,13.9
2022-12-20T21:31:29.111Z,13.9
2022-12-20T21:41:35.035Z,13.7
2022-12-20T22:01:51.206Z,13.9
2022-12-20T22:11:57.076Z,13.7
2022-12-20T22:22:05.042Z,13.7
2022-12-20T22:32:11.253Z,13.7
2022-12-20T22:42:19.256Z,13.7
2022-12-20T22:52:27.040Z,13.7
2022-12-20T23:02:35.203Z,13.7
2022-12-20T23:12:42.952Z,13.7
2022-12-20T23:22:50.920Z,13.7
2022-12-20T23:32:58.820Z,13.7
2022-12-20T23:43:06.778Z,13.7
2022-12-20T23:53:14.695Z,13.7
